createdAt,value
2023-12-12T00:01:53.646Z,0.00
2023-12-12T00:03:54.102Z,0.00
2023-12-12T00:05:54.479Z,0.00
2023-12-12T00:07:54.740Z,0.00
2023-12-12T00:09:55.104Z,0.00
2023-12-12T00:11:55.411Z,0.00
2023-12-12T00:13:55.692Z,0.00
2023-12-12T00:15:56.021Z,0.00
2023-12-12T00:17:56.406Z,0.00
2023-12-12T00:19:56.727Z,0.00
2023-12-12T00:21:57.040Z,0.00
2023-12-12T00:23:57.315Z,0.00
2023-12-12T00:25:57.553Z,0.00
2023-12-12T00:27:57.881Z,0.00
2023-12-12T00:29:58.134Z,0.00
2023-12-12T00:31:58.421Z,0.00
2023-12-12T00:33:58.806Z,0.00
2023-12-12T00:35:59.117Z,0.00
2023-12-12T00:37:59.429Z,0.00
2023-12-12T00:39:59.829Z,0.00
2023-12-12T00:42:00.108Z,0.00
2023-12-12T00:44:00.384Z,0.00
2023-12-12T00:46:00.689Z,0.00
2023-12-12T00:48:00.993Z,0.00
2023-12-12T00:50:01.292Z,0.00
2023-12-12T00:52:01.603Z,0.00
2023-12-12T00:54:03.773Z,0.00
2023-12-12T00:56:05.257Z,0.00
2023-12-12T00:58:05.557Z,0.00
2023-12-12T01:00:05.820Z,0.00
2023-12-12T01:02:06.075Z,0.00
2023-12-12T01:04:06.462Z,0.00
2023-12-12T01:06:06.727Z,0.00
2023-12-12T01:08:07.076Z,0.00
2023-12-12T01:10:07.421Z,0.00
2023-12-12T01:12:08.269Z,0.00
2023-12-12T01:14:08.537Z,0.00
2023-12-12T01:16:08.846Z,0.00
2023-12-12T01:18:09.207Z,0.00
2023-12-12T01:20:09.525Z,0.00
2023-12-12T01:22:09.801Z,0.00
2023-12-12T01:24:10.080Z,0.00
2023-12-12T01:26:10.372Z,0.00
2023-12-12T01:28:10.664Z,0.00
2023-12-12T01:30:10.980Z,0.00
2023-12-12T01:32:11.293Z,0.00
2023-12-12T01:34:11.616Z,0.00
2023-12-12T01:36:11.899Z,0.00
2023-12-12T01:38:12.163Z,0.00
2023-12-12T01:40:12.576Z,0.00
2023-12-12T01:42:12.855Z,0.00
2023-12-12T01:44:13.148Z,0.00
2023-12-12T01:46:13.516Z,0.00
2023-12-12T01:48:14.000Z,0.00
2023-12-12T01:50:14.314Z,0.00
2023-12-12T01:52:14.665Z,0.00
2023-12-12T01:54:14.929Z,0.00
2023-12-12T01:56:15.230Z,0.00
2023-12-12T01:58:15.547Z,0.00
2023-12-12T02:00:15.842Z,0.00
2023-12-12T02:02:16.085Z,0.00
2023-12-12T02:04:16.512Z,0.00
2023-12-12T02:06:16.866Z,0.00
2023-12-12T02:08:17.146Z,0.00
2023-12-12T02:10:17.427Z,0.00
2023-12-12T02:12:17.764Z,0.00
2023-12-12T02:14:18.098Z,0.00
2023-12-12T02:16:18.461Z,0.00
2023-12-12T02:18:18.818Z,0.00
2023-12-12T02:20:19.169Z,0.00
2023-12-12T02:22:19.532Z,0.00
2023-12-12T02:24:19.803Z,0.00
2023-12-12T02:26:20.086Z,0.00
2023-12-12T02:28:20.382Z,0.00
2023-12-12T02:30:20.682Z,0.00
2023-12-12T02:32:20.985Z,0.00
2023-12-12T02:34:21.299Z,0.00
2023-12-12T02:36:21.529Z,0.00
2023-12-12T02:38:21.885Z,0.00
2023-12-12T02:40:22.161Z,0.00
2023-12-12T02:42:22.451Z,0.00
2023-12-12T02:44:22.732Z,0.00
2023-12-12T02:46:23.035Z,0.00
2023-12-12T02:48:23.361Z,0.00
2023-12-12T02:50:25.698Z,0.00
2023-12-12T02:52:26.320Z,0.00
2023-12-12T02:54:26.600Z,0.00
2023-12-12T02:56:26.897Z,0.00
2023-12-12T02:58:27.290Z,0.00
2023-12-12T03:00:27.690Z,0.00
2023-12-12T03:02:28.034Z,0.00
2023-12-12T03:04:28.375Z,0.00
2023-12-12T03:06:28.711Z,0.00
2023-12-12T03:08:28.983Z,0.00
2023-12-12T03:10:29.321Z,0.00
2023-12-12T03:12:29.661Z,0.00
2023-12-12T03:14:29.906Z,0.00
2023-12-12T03:16:30.314Z,0.00
2023-12-12T03:18:30.742Z,0.00
2023-12-12T03:20:31.022Z,0.00
2023-12-12T03:22:31.360Z,0.00
2023-12-12T03:24:31.655Z,0.00
2023-12-12T03:26:32.009Z,0.00
2023-12-12T03:28:32.372Z,0.00
2023-12-12T03:30:32.624Z,0.00
2023-12-12T03:32:32.964Z,0.00
2023-12-12T03:34:33.262Z,0.00
2023-12-12T03:36:33.564Z,0.00
2023-12-12T03:38:33.883Z,0.00
2023-12-12T03:40:34.214Z,0.00
2023-12-12T03:42:34.592Z,0.00
2023-12-12T03:44:34.863Z,0.00
2023-12-12T03:46:35.211Z,0.00
2023-12-12T03:48:35.602Z,0.00
2023-12-12T03:50:36.182Z,0.00
2023-12-12T03:52:36.556Z,0.00
2023-12-12T03:54:36.916Z,0.00
2023-12-12T03:56:37.196Z,0.00
2023-12-12T03:58:37.604Z,0.00
2023-12-12T04:00:37.988Z,0.00
2023-12-12T04:02:38.278Z,0.00
2023-12-12T04:04:38.632Z,0.00
2023-12-12T04:06:38.933Z,0.00
2023-12-12T04:08:39.207Z,0.00
2023-12-12T04:10:39.589Z,0.00
2023-12-12T04:12:39.889Z,0.00
2023-12-12T04:14:40.197Z,0.00
2023-12-12T04:16:40.581Z,0.00
2023-12-12T04:18:41.135Z,0.00
2023-12-12T04:20:41.491Z,0.00
2023-12-12T04:22:41.770Z,0.00
2023-12-12T04:24:42.112Z,0.00
2023-12-12T04:26:42.445Z,0.00
2023-12-12T04:28:42.734Z,0.00
2023-12-12T04:30:43.005Z,0.00
2023-12-12T04:32:43.306Z,0.00
2023-12-12T04:34:43.643Z,0.00
2023-12-12T04:36:43.919Z,0.00
2023-12-12T04:38:44.515Z,0.00
2023-12-12T04:40:44.764Z,0.00
2023-12-12T04:42:45.079Z,0.00
2023-12-12T04:44:45.390Z,0.00
2023-12-12T04:46:45.792Z,0.00
2023-12-12T04:48:46.200Z,0.00
2023-12-12T04:50:46.599Z,0.00
2023-12-12T04:52:46.904Z,0.00
2023-12-12T04:54:47.227Z,0.00
2023-12-12T04:56:47.471Z,0.00
2023-12-12T04:58:47.792Z,0.00
2023-12-12T05:00:48.133Z,0.00
2023-12-12T05:02:48.384Z,0.00
2023-12-12T05:04:48.688Z,0.00
2023-12-12T05:06:49.102Z,0.00
2023-12-12T05:08:49.418Z,0.00
2023-12-12T05:10:50.005Z,0.00
2023-12-12T05:12:50.259Z,0.00
2023-12-12T05:14:50.527Z,0.00
2023-12-12T05:16:58.205Z,0.00
2023-12-12T05:18:56.259Z,0.00
2023-12-12T05:20:56.648Z,0.00
2023-12-12T05:22:56.942Z,0.00
2023-12-12T05:24:57.242Z,0.00
2023-12-12T05:26:57.523Z,0.00
2023-12-12T05:28:57.802Z,0.00
2023-12-12T05:30:58.184Z,0.00
2023-12-12T05:32:58.579Z,0.00
2023-12-12T05:34:58.849Z,0.00
2023-12-12T05:36:59.166Z,0.00
2023-12-12T05:38:59.465Z,0.00
2023-12-12T05:40:59.746Z,0.00
2023-12-12T05:43:00.158Z,0.00
2023-12-12T05:45:00.432Z,0.00
2023-12-12T05:47:00.729Z,0.00
2023-12-12T05:49:01.224Z,0.00
2023-12-12T05:51:01.550Z,0.00
2023-12-12T05:53:01.889Z,0.00
2023-12-12T05:55:02.264Z,0.00
2023-12-12T05:57:02.605Z,0.00
2023-12-12T05:59:02.944Z,0.00
2023-12-12T06:01:03.234Z,0.00
2023-12-12T06:03:03.503Z,0.00
2023-12-12T06:05:03.885Z,0.00
2023-12-12T06:07:04.219Z,0.00
2023-12-12T06:09:04.512Z,0.00
2023-12-12T06:11:04.821Z,0.00
2023-12-12T06:13:05.175Z,0.00
2023-12-12T06:15:05.457Z,0.00
2023-12-12T06:17:05.755Z,0.00
2023-12-12T06:19:06.688Z,0.00
2023-12-12T06:21:07.428Z,0.00
2023-12-12T06:23:07.686Z,0.00
2023-12-12T06:25:08.085Z,0.00
2023-12-12T06:27:08.383Z,0.00
2023-12-12T06:29:08.725Z,0.00
2023-12-12T06:31:09.231Z,0.00
2023-12-12T06:33:09.774Z,0.00
2023-12-12T06:35:10.260Z,0.00
2023-12-12T06:37:10.663Z,0.00
2023-12-12T06:39:11.137Z,0.00
2023-12-12T06:41:11.537Z,0.00
2023-12-12T06:43:11.903Z,0.00
2023-12-12T06:45:12.231Z,0.00
2023-12-12T06:47:12.549Z,0.00
2023-12-12T06:49:12.847Z,0.00
2023-12-12T06:51:13.231Z,0.00
2023-12-12T06:53:13.483Z,0.00
2023-12-12T06:55:13.890Z,0.00
2023-12-12T06:57:14.239Z,0.00
2023-12-12T06:59:14.487Z,0.00
2023-12-12T07:01:14.921Z,0.00
2023-12-12T07:03:15.369Z,0.00
2023-12-12T07:05:15.735Z,0.00
2023-12-12T07:07:16.151Z,0.00
2023-12-12T07:09:16.465Z,0.00
2023-12-12T07:11:16.806Z,0.00
2023-12-12T07:13:17.106Z,0.00
2023-12-12T07:15:17.498Z,0.00
2023-12-12T07:17:17.889Z,0.00
2023-12-12T07:19:18.247Z,0.00
2023-12-12T07:21:18.525Z,0.00
2023-12-12T07:23:18.910Z,0.00
2023-12-12T07:25:19.192Z,0.00
2023-12-12T07:27:19.586Z,0.00
2023-12-12T07:29:19.892Z,0.00
2023-12-12T07:31:20.195Z,0.00
2023-12-12T07:33:20.591Z,0.00
2023-12-12T07:35:20.938Z,0.00
2023-12-12T07:37:21.265Z,0.00
2023-12-12T07:39:21.617Z,5.62
2023-12-12T07:41:21.921Z,5.62
2023-12-12T07:43:22.212Z,5.62
2023-12-12T07:45:22.453Z,11.25
2023-12-12T07:47:31.359Z,11.25
2023-12-12T07:49:28.019Z,11.25
2023-12-12T07:51:29.091Z,11.25
2023-12-12T07:53:30.321Z,5.62
2023-12-12T07:55:30.649Z,5.62
2023-12-12T07:57:31.391Z,5.62
2023-12-12T07:59:31.899Z,5.62
2023-12-12T08:01:32.294Z,11.25
2023-12-12T08:03:32.667Z,16.88
2023-12-12T08:05:32.997Z,16.88
2023-12-12T08:07:33.572Z,16.88
2023-12-12T08:09:34.035Z,22.50
2023-12-12T08:11:34.306Z,22.50
2023-12-12T08:13:34.728Z,28.12
2023-12-12T08:15:35.046Z,28.12
2023-12-12T08:17:35.709Z,33.75
2023-12-12T08:19:36.379Z,39.38
2023-12-12T08:21:36.688Z,39.38
2023-12-12T08:23:36.962Z,39.38
2023-12-12T08:25:37.364Z,50.62
2023-12-12T08:27:37.756Z,50.62
2023-12-12T08:29:38.009Z,50.62
2023-12-12T08:31:38.344Z,56.25
2023-12-12T08:33:38.795Z,56.25
2023-12-12T08:35:39.136Z,56.25
2023-12-12T08:37:39.689Z,67.50
2023-12-12T08:39:40.234Z,56.25
2023-12-12T08:41:40.551Z,45.00
2023-12-12T08:43:40.904Z,28.12
2023-12-12T08:45:41.219Z,22.50
2023-12-12T08:47:41.558Z,22.50
2023-12-12T08:49:41.957Z,22.50
2023-12-12T08:51:42.258Z,22.50
2023-12-12T08:53:42.552Z,22.50
2023-12-12T08:55:42.906Z,22.50
2023-12-12T08:57:43.192Z,16.88
2023-12-12T08:59:43.465Z,22.50
2023-12-12T09:01:43.897Z,22.50
2023-12-12T09:03:44.314Z,28.12
2023-12-12T09:05:44.686Z,28.12
2023-12-12T09:07:45.030Z,28.12
2023-12-12T09:09:45.353Z,28.12
2023-12-12T09:11:45.644Z,33.75
2023-12-12T09:13:46.024Z,39.38
2023-12-12T09:15:46.318Z,33.75
2023-12-12T09:18:00.373Z,39.38
2023-12-12T09:19:51.959Z,50.62
2023-12-12T09:21:52.315Z,56.25
2023-12-12T09:23:52.637Z,45.00
2023-12-12T09:25:52.924Z,28.12
2023-12-12T09:27:53.230Z,28.12
2023-12-12T09:29:55.791Z,28.12
2023-12-12T09:31:56.341Z,33.75
2023-12-12T09:33:56.957Z,39.38
2023-12-12T09:35:57.424Z,33.75
2023-12-12T09:37:57.794Z,33.75
2023-12-12T09:39:58.160Z,33.75
2023-12-12T09:41:58.442Z,33.75
2023-12-12T09:43:58.781Z,33.75
2023-12-12T09:45:59.087Z,28.12
2023-12-12T09:47:59.539Z,33.75
2023-12-12T09:50:00.497Z,28.12
2023-12-12T09:52:00.806Z,28.12
2023-12-12T09:54:01.086Z,33.75
2023-12-12T09:56:01.362Z,33.75
2023-12-12T09:58:01.716Z,33.75
2023-12-12T10:00:02.032Z,39.38
2023-12-12T10:02:09.909Z,45.00
2023-12-12T10:04:07.586Z,39.38
2023-12-12T10:06:07.855Z,33.75
2023-12-12T10:08:13.863Z,33.75
2023-12-12T10:10:13.347Z,33.75
2023-12-12T10:12:13.636Z,33.75
2023-12-12T10:14:13.951Z,39.38
2023-12-12T10:16:14.274Z,45.00
2023-12-12T10:18:14.639Z,45.00
2023-12-12T10:20:15.056Z,45.00
2023-12-12T10:22:15.513Z,56.25
2023-12-12T10:24:15.878Z,61.88
2023-12-12T10:26:16.185Z,90.00
2023-12-12T10:28:16.488Z,95.62
2023-12-12T10:30:16.833Z,84.38
2023-12-12T10:32:17.102Z,73.12
2023-12-12T10:34:17.484Z,67.50
2023-12-12T10:36:17.812Z,50.62
2023-12-12T10:38:18.092Z,45.00
2023-12-12T10:40:18.444Z,45.00
2023-12-12T10:42:18.792Z,45.00
2023-12-12T10:44:19.042Z,45.00
2023-12-12T10:46:19.338Z,50.62
2023-12-12T10:48:19.721Z,50.62
2023-12-12T10:50:20.223Z,56.25
2023-12-12T10:52:20.640Z,45.00
2023-12-12T10:54:20.928Z,39.38
2023-12-12T10:56:21.198Z,50.62
2023-12-12T10:58:21.603Z,39.38
2023-12-12T11:00:21.908Z,39.38
2023-12-12T11:02:22.206Z,39.38
2023-12-12T11:04:22.581Z,28.12
2023-12-12T11:06:22.905Z,28.12
2023-12-12T11:08:23.217Z,22.50
2023-12-12T11:10:23.651Z,22.50
2023-12-12T11:12:24.036Z,22.50
2023-12-12T11:14:24.353Z,22.50
2023-12-12T11:16:24.690Z,22.50
2023-12-12T11:18:24.999Z,22.50
2023-12-12T11:20:25.398Z,22.50
2023-12-12T11:22:25.808Z,16.88
2023-12-12T11:24:26.134Z,16.88
2023-12-12T11:26:26.561Z,11.25
2023-12-12T11:28:26.896Z,16.88
2023-12-12T11:30:27.218Z,16.88
2023-12-12T11:32:27.596Z,16.88
2023-12-12T11:34:27.998Z,16.88
2023-12-12T11:36:28.301Z,22.50
2023-12-12T11:38:28.643Z,16.88
2023-12-12T11:40:29.077Z,22.50
2023-12-12T11:42:29.533Z,22.50
2023-12-12T11:44:29.861Z,22.50
2023-12-12T11:46:30.180Z,22.50
2023-12-12T11:48:30.585Z,22.50
2023-12-12T11:50:30.978Z,22.50
2023-12-12T11:52:31.460Z,22.50
2023-12-12T11:54:31.841Z,22.50
2023-12-12T11:56:32.173Z,22.50
2023-12-12T11:58:32.517Z,28.12
2023-12-12T12:00:32.773Z,22.50
2023-12-12T12:02:33.443Z,28.12
2023-12-12T12:04:33.854Z,28.12
2023-12-12T12:06:34.261Z,22.50
2023-12-12T12:08:34.565Z,28.12
2023-12-12T12:10:34.877Z,28.12
2023-12-12T12:12:35.171Z,39.38
2023-12-12T12:14:35.518Z,39.38
2023-12-12T12:16:35.863Z,45.00
2023-12-12T12:18:36.215Z,39.38
2023-12-12T12:20:36.507Z,33.75
2023-12-12T12:22:36.959Z,39.38
2023-12-12T12:24:37.299Z,50.62
2023-12-12T12:26:37.554Z,61.88
2023-12-12T12:28:38.093Z,61.88
2023-12-12T12:30:43.039Z,78.75
2023-12-12T12:32:43.363Z,84.38
2023-12-12T12:34:43.685Z,90.00
2023-12-12T12:36:44.062Z,84.38
2023-12-12T12:38:44.402Z,90.00
2023-12-12T12:40:44.724Z,90.00
2023-12-12T12:42:44.997Z,73.12
2023-12-12T12:44:45.317Z,67.50
2023-12-12T12:46:45.576Z,61.88
2023-12-12T12:48:45.958Z,56.25
2023-12-12T12:50:46.252Z,39.38
2023-12-12T12:52:46.652Z,33.75
2023-12-12T12:54:46.940Z,28.12
2023-12-12T12:56:47.207Z,28.12
2023-12-12T12:58:47.580Z,28.12
2023-12-12T13:00:48.090Z,28.12
2023-12-12T13:02:48.429Z,28.12
2023-12-12T13:04:48.736Z,33.75
2023-12-12T13:06:49.062Z,33.75
2023-12-12T13:08:49.322Z,28.12
2023-12-12T13:10:51.461Z,33.75
2023-12-12T13:12:52.229Z,33.75
2023-12-12T13:14:52.544Z,22.50
2023-12-12T13:16:52.868Z,16.88
2023-12-12T13:18:53.160Z,22.50
2023-12-12T13:20:53.439Z,22.50
2023-12-12T13:22:53.805Z,39.38
2023-12-12T13:24:54.121Z,28.12
2023-12-12T13:26:54.450Z,22.50
2023-12-12T13:28:54.706Z,16.88
2023-12-12T13:30:54.996Z,16.88
2023-12-12T13:32:55.505Z,16.88
2023-12-12T13:34:55.972Z,16.88
2023-12-12T13:36:56.249Z,16.88
2023-12-12T13:38:56.501Z,16.88
2023-12-12T13:40:56.892Z,16.88
2023-12-12T13:42:57.197Z,16.88
2023-12-12T13:44:57.483Z,16.88
2023-12-12T13:46:57.806Z,22.50
2023-12-12T13:48:58.171Z,22.50
2023-12-12T13:50:58.451Z,22.50
2023-12-12T13:52:58.763Z,22.50
2023-12-12T13:54:59.090Z,22.50
2023-12-12T13:56:59.381Z,22.50
2023-12-12T13:59:06.647Z,22.50
2023-12-12T14:01:04.960Z,28.12
2023-12-12T14:03:05.267Z,22.50
2023-12-12T14:05:05.662Z,22.50
2023-12-12T14:07:06.021Z,28.12
2023-12-12T14:09:06.299Z,22.50
2023-12-12T14:11:06.571Z,22.50
2023-12-12T14:13:06.922Z,22.50
2023-12-12T14:15:07.218Z,16.88
2023-12-12T14:17:07.615Z,22.50
2023-12-12T14:19:07.973Z,22.50
2023-12-12T14:21:08.282Z,22.50
2023-12-12T14:23:11.532Z,11.25
2023-12-12T14:25:13.786Z,16.88
2023-12-12T14:27:14.027Z,16.88
2023-12-12T14:29:14.416Z,16.88
2023-12-12T14:31:14.927Z,16.88
2023-12-12T14:33:15.307Z,11.25
2023-12-12T14:35:15.582Z,11.25
2023-12-12T14:37:15.955Z,11.25
2023-12-12T14:39:17.443Z,5.62
2023-12-12T14:41:17.876Z,5.62
2023-12-12T14:43:18.174Z,5.62
2023-12-12T14:45:18.434Z,5.62
2023-12-12T14:47:18.731Z,5.62
2023-12-12T14:49:19.201Z,5.62
2023-12-12T14:51:19.611Z,5.62
2023-12-12T14:53:19.905Z,5.62
2023-12-12T14:55:20.216Z,5.62
2023-12-12T14:57:22.104Z,5.62
2023-12-12T14:59:23.508Z,11.25
2023-12-12T15:01:23.937Z,11.25
2023-12-12T15:03:24.952Z,5.62
2023-12-12T15:05:25.348Z,5.62
2023-12-12T15:07:25.676Z,5.62
2023-12-12T15:09:25.966Z,5.62
2023-12-12T15:11:26.260Z,5.62
2023-12-12T15:13:26.593Z,0.00
2023-12-12T15:15:26.913Z,0.00
2023-12-12T15:17:27.637Z,0.00
2023-12-12T15:19:27.983Z,0.00
2023-12-12T15:21:28.330Z,0.00
2023-12-12T15:23:28.619Z,0.00
2023-12-12T15:25:35.889Z,0.00
2023-12-12T15:27:34.111Z,0.00
2023-12-12T15:29:34.414Z,0.00
2023-12-12T15:31:36.644Z,0.00
2023-12-12T15:33:37.457Z,0.00
2023-12-12T15:35:37.813Z,0.00
2023-12-12T15:37:38.222Z,0.00
2023-12-12T15:39:38.612Z,0.00
2023-12-12T15:41:38.925Z,0.00
2023-12-12T15:43:39.198Z,0.00
2023-12-12T15:45:39.507Z,0.00
2023-12-12T15:47:39.793Z,0.00
2023-12-12T15:49:40.279Z,0.00
2023-12-12T15:51:40.575Z,0.00
2023-12-12T15:53:40.924Z,0.00
2023-12-12T15:55:41.511Z,0.00
2023-12-12T15:57:41.972Z,0.00
2023-12-12T15:59:42.321Z,0.00
2023-12-12T16:01:42.741Z,0.00
2023-12-12T16:03:43.117Z,0.00
2023-12-12T16:05:43.532Z,0.00
2023-12-12T16:07:43.944Z,0.00
2023-12-12T16:09:44.404Z,0.00
2023-12-12T16:11:44.695Z,0.00
2023-12-12T16:13:45.047Z,0.00
2023-12-12T16:15:45.374Z,0.00
2023-12-12T16:17:46.053Z,0.00
2023-12-12T16:19:46.491Z,0.00
2023-12-12T16:21:46.790Z,0.00
2023-12-12T16:23:47.097Z,0.00
2023-12-12T16:25:47.510Z,0.00
2023-12-12T16:27:51.021Z,0.00
2023-12-12T16:29:53.013Z,0.00
2023-12-12T16:31:53.372Z,0.00
2023-12-12T16:33:53.756Z,0.00
2023-12-12T16:35:54.013Z,0.00
2023-12-12T16:37:54.402Z,0.00
2023-12-12T16:39:54.740Z,0.00
2023-12-12T16:41:55.052Z,0.00
2023-12-12T16:43:55.321Z,0.00
2023-12-12T16:45:55.623Z,0.00
2023-12-12T16:47:56.127Z,0.00
2023-12-12T16:49:56.522Z,0.00
2023-12-12T16:51:56.823Z,0.00
2023-12-12T16:53:57.101Z,0.00
2023-12-12T16:55:57.394Z,0.00
2023-12-12T16:57:57.655Z,0.00
2023-12-12T17:00:02.851Z,0.00
2023-12-12T17:02:03.146Z,0.00
2023-12-12T17:04:03.522Z,0.00
2023-12-12T17:06:03.780Z,0.00
2023-12-12T17:08:04.336Z,0.00
2023-12-12T17:10:04.687Z,0.00
2023-12-12T17:12:04.975Z,0.00
2023-12-12T17:14:05.415Z,0.00
2023-12-12T17:16:05.837Z,0.00
2023-12-12T17:18:06.316Z,0.00
2023-12-12T17:20:06.606Z,0.00
2023-12-12T17:22:06.893Z,0.00
2023-12-12T17:24:07.151Z,0.00
2023-12-12T17:26:07.528Z,0.00
2023-12-12T17:28:07.883Z,0.00
2023-12-12T17:30:08.203Z,0.00
2023-12-12T17:32:08.602Z,0.00
2023-12-12T17:34:08.922Z,0.00
2023-12-12T17:36:09.371Z,0.00
2023-12-12T17:38:10.191Z,0.00
2023-12-12T17:40:15.441Z,0.00
2023-12-12T17:42:15.732Z,0.00
2023-12-12T17:44:16.049Z,0.00
2023-12-12T17:46:16.359Z,0.00
2023-12-12T17:48:16.677Z,0.00
2023-12-12T17:50:17.196Z,0.00
2023-12-12T17:52:17.590Z,0.00
2023-12-12T17:54:17.833Z,0.00
2023-12-12T17:56:18.162Z,0.00
2023-12-12T17:58:18.580Z,0.00
2023-12-12T18:00:18.908Z,0.00
2023-12-12T18:02:19.209Z,0.00
2023-12-12T18:04:19.539Z,0.00
2023-12-12T18:06:19.866Z,0.00
2023-12-12T18:08:20.119Z,0.00
2023-12-12T18:10:20.475Z,0.00
2023-12-12T18:12:20.770Z,0.00
2023-12-12T18:14:21.070Z,0.00
2023-12-12T18:16:21.392Z,0.00
2023-12-12T18:18:21.915Z,0.00
2023-12-12T18:20:22.281Z,0.00
2023-12-12T18:22:22.680Z,0.00
2023-12-12T18:24:23.007Z,0.00
2023-12-12T18:26:23.280Z,0.00
2023-12-12T18:28:23.602Z,0.00
2023-12-12T18:30:23.906Z,0.00
2023-12-12T18:32:24.275Z,0.00
2023-12-12T18:34:24.644Z,0.00
2023-12-12T18:36:24.902Z,0.00
2023-12-12T18:38:25.235Z,0.00
2023-12-12T18:40:25.584Z,0.00
2023-12-12T18:42:25.910Z,0.00
2023-12-12T18:44:26.170Z,0.00
2023-12-12T18:46:26.515Z,0.00
2023-12-12T18:48:26.896Z,0.00
2023-12-12T18:50:32.020Z,0.00
2023-12-12T18:52:32.351Z,0.00
2023-12-12T18:54:32.612Z,0.00
2023-12-12T18:56:32.920Z,0.00
2023-12-12T18:58:33.215Z,0.00
2023-12-12T19:00:33.532Z,0.00
2023-12-12T19:02:33.813Z,0.00
2023-12-12T19:04:34.234Z,0.00
2023-12-12T19:06:34.567Z,0.00
2023-12-12T19:08:34.803Z,0.00
2023-12-12T19:10:35.112Z,0.00
2023-12-12T19:12:35.398Z,0.00
2023-12-12T19:14:35.688Z,0.00
2023-12-12T19:16:36.010Z,0.00
2023-12-12T19:18:36.325Z,0.00
2023-12-12T19:20:36.656Z,0.00
2023-12-12T19:22:36.990Z,0.00
2023-12-12T19:24:37.286Z,0.00
2023-12-12T19:26:37.555Z,0.00
2023-12-12T19:28:37.944Z,0.00
2023-12-12T19:30:38.284Z,0.00
2023-12-12T19:32:38.627Z,0.00
2023-12-12T19:34:39.024Z,0.00
2023-12-12T19:36:39.297Z,0.00
2023-12-12T19:38:39.581Z,0.00
2023-12-12T19:40:40.041Z,0.00
2023-12-12T19:42:40.355Z,0.00
2023-12-12T19:44:40.677Z,0.00
2023-12-12T19:46:40.996Z,0.00
2023-12-12T19:48:46.289Z,0.00
2023-12-12T19:50:46.705Z,0.00
2023-12-12T19:52:47.058Z,0.00
2023-12-12T19:54:47.322Z,0.00
2023-12-12T19:56:47.597Z,0.00
2023-12-12T19:58:47.907Z,0.00
2023-12-12T20:00:48.734Z,0.00
2023-12-12T20:02:49.002Z,0.00
2023-12-12T20:04:49.358Z,0.00
2023-12-12T20:06:49.619Z,0.00
2023-12-12T20:08:49.906Z,0.00
2023-12-12T20:10:50.235Z,0.00
2023-12-12T20:12:50.484Z,0.00
2023-12-12T20:14:50.830Z,0.00
2023-12-12T20:16:51.140Z,0.00
2023-12-12T20:18:51.534Z,0.00
2023-12-12T20:20:56.664Z,0.00
2023-12-12T20:22:56.998Z,0.00
2023-12-12T20:24:57.291Z,0.00
2023-12-12T20:26:57.614Z,0.00
2023-12-12T20:28:57.919Z,0.00
2023-12-12T20:30:58.294Z,0.00
2023-12-12T20:33:03.494Z,0.00
2023-12-12T20:35:04.733Z,0.00
2023-12-12T20:37:05.309Z,0.00
2023-12-12T20:39:05.599Z,0.00
2023-12-12T20:41:05.872Z,0.00
2023-12-12T20:43:06.260Z,0.00
2023-12-12T20:45:06.629Z,0.00
2023-12-12T20:47:06.884Z,0.00
2023-12-12T20:49:07.827Z,0.00
2023-12-12T20:51:08.141Z,0.00
2023-12-12T20:53:08.469Z,0.00
2023-12-12T20:55:08.771Z,0.00
2023-12-12T20:57:14.720Z,0.00
2023-12-12T20:59:15.153Z,0.00
2023-12-12T21:01:15.547Z,0.00
2023-12-12T21:03:15.902Z,0.00
2023-12-12T21:05:16.234Z,0.00
2023-12-12T21:07:16.514Z,0.00
2023-12-12T21:09:16.754Z,0.00
2023-12-12T21:11:17.069Z,0.00
2023-12-12T21:13:17.477Z,0.00
2023-12-12T21:15:17.751Z,0.00
2023-12-12T21:17:18.034Z,0.00
2023-12-12T21:19:18.333Z,0.00
2023-12-12T21:21:18.671Z,0.00
2023-12-12T21:23:18.988Z,0.00
2023-12-12T21:25:19.292Z,0.00
2023-12-12T21:27:20.409Z,0.00
2023-12-12T21:29:20.631Z,0.00
2023-12-12T21:31:21.154Z,0.00
2023-12-12T21:33:21.554Z,0.00
2023-12-12T21:35:21.880Z,0.00
2023-12-12T21:37:22.151Z,0.00
2023-12-12T21:39:22.724Z,0.00
2023-12-12T21:41:23.027Z,0.00
2023-12-12T21:43:23.312Z,0.00
2023-12-12T21:45:23.543Z,0.00
2023-12-12T21:47:23.869Z,0.00
2023-12-12T21:49:24.193Z,0.00
2023-12-12T21:51:24.456Z,0.00
2023-12-12T21:53:24.732Z,0.00
2023-12-12T21:55:25.059Z,0.00
2023-12-12T21:57:25.323Z,0.00
2023-12-12T21:59:25.599Z,0.00
2023-12-12T22:01:26.073Z,0.00
2023-12-12T22:03:26.431Z,0.00
2023-12-12T22:05:26.804Z,0.00
2023-12-12T22:07:27.241Z,0.00
2023-12-12T22:09:27.543Z,0.00
2023-12-12T22:11:27.828Z,0.00
2023-12-12T22:13:28.108Z,0.00
2023-12-12T22:15:28.379Z,0.00
2023-12-12T22:17:28.696Z,0.00
2023-12-12T22:19:29.134Z,0.00
2023-12-12T22:21:29.418Z,0.00
2023-12-12T22:23:29.680Z,0.00
2023-12-12T22:25:30.033Z,0.00
2023-12-12T22:27:30.674Z,0.00
2023-12-12T22:29:31.176Z,0.00
2023-12-12T22:31:31.488Z,0.00
2023-12-12T22:33:31.844Z,0.00
2023-12-12T22:35:32.124Z,0.00
2023-12-12T22:37:32.737Z,0.00
2023-12-12T22:39:33.138Z,0.00
2023-12-12T22:41:33.463Z,0.00
2023-12-12T22:43:33.813Z,0.00
2023-12-12T22:45:34.149Z,0.00
2023-12-12T22:47:34.856Z,0.00
2023-12-12T22:49:35.329Z,0.00
2023-12-12T22:51:35.628Z,0.00
2023-12-12T22:53:35.901Z,0.00
2023-12-12T22:55:36.253Z,0.00
2023-12-12T22:57:36.582Z,0.00
2023-12-12T22:59:36.892Z,0.00
2023-12-12T23:01:37.249Z,0.00
2023-12-12T23:03:37.568Z,0.00
2023-12-12T23:05:37.897Z,0.00
2023-12-12T23:07:38.192Z,0.00
2023-12-12T23:09:38.440Z,0.00
2023-12-12T23:11:38.797Z,0.00
2023-12-12T23:13:39.159Z,0.00
2023-12-12T23:15:39.445Z,0.00
2023-12-12T23:17:39.719Z,0.00
2023-12-12T23:19:40.054Z,0.00
2023-12-12T23:21:40.341Z,0.00
2023-12-12T23:23:40.623Z,0.00
2023-12-12T23:25:40.888Z,0.00
2023-12-12T23:27:41.198Z,0.00
2023-12-12T23:29:41.525Z,0.00
2023-12-12T23:31:41.823Z,0.00
2023-12-12T23:33:42.193Z,0.00
2023-12-12T23:35:42.462Z,0.00
2023-12-12T23:37:42.767Z,0.00
2023-12-12T23:39:43.043Z,0.00
2023-12-12T23:41:43.309Z,0.00
2023-12-12T23:43:43.650Z,0.00
2023-12-12T23:45:43.926Z,0.00
2023-12-12T23:47:44.223Z,0.00
2023-12-12T23:49:44.624Z,0.00
2023-12-12T23:51:44.901Z,0.00
2023-12-12T23:53:45.196Z,0.00
2023-12-12T23:55:45.486Z,0.00
2023-12-12T23:57:45.738Z,0.00
2023-12-12T23:59:46.050Z,0.00
